createdAt,value
2018-06-11T00:00:01.240Z,99.99
2018-06-11T00:01:54.025Z,99.99
2018-06-11T00:02:53.963Z,99.99
2018-06-11T00:04:46.768Z,99.99
2018-06-11T00:05:46.722Z,99.99
2018-06-11T00:07:39.548Z,99.99
2018-06-11T00:08:39.404Z,99.99
2018-06-11T00:10:32.203Z,99.99
2018-06-11T00:11:32.127Z,99.99
2018-06-11T00:13:24.898Z,99.99
2018-06-11T00:14:24.867Z,99.99
2018-06-11T00:16:17.612Z,99.99
2018-06-11T00:17:17.544Z,99.99
2018-06-11T00:19:10.351Z,99.99
2018-06-11T00:20:10.259Z,99.99
2018-06-11T00:22:03.039Z,99.99
2018-06-11T00:23:02.973Z,99.99
2018-06-11T00:24:55.795Z,99.99
2018-06-11T00:25:55.693Z,99.99
2018-06-11T00:27:48.473Z,99.99
2018-06-11T00:28:48.409Z,99.99
2018-06-11T00:30:41.213Z,99.99
2018-06-11T00:31:41.120Z,99.99
2018-06-11T00:33:33.917Z,99.99
2018-06-11T00:34:33.847Z,99.99
2018-06-11T00:36:26.649Z,99.99
2018-06-11T00:37:26.556Z,99.99
2018-06-11T00:39:19.338Z,99.99
2018-06-11T00:40:19.269Z,99.99
2018-06-11T00:42:12.057Z,99.99
2018-06-11T00:43:11.991Z,99.99
2018-06-11T00:45:04.786Z,99.99
2018-06-11T00:46:04.714Z,99.99
2018-06-11T00:47:57.507Z,99.99
2018-06-11T00:48:57.446Z,99.99
2018-06-11T00:50:49.350Z,99.99
2018-06-11T00:51:49.281Z,99.99
2018-06-11T00:53:42.060Z,99.99
2018-06-11T00:54:42.010Z,99.99
2018-06-11T00:56:34.872Z,99.99
2018-06-11T00:57:34.788Z,99.99
2018-06-11T00:59:27.569Z,99.99
2018-06-11T01:00:27.504Z,99.99
2018-06-11T01:02:20.310Z,99.99
2018-06-11T01:03:20.270Z,99.99
2018-06-11T01:05:13.047Z,99.99
2018-06-11T01:06:12.966Z,99.99
2018-06-11T01:08:05.741Z,99.99
2018-06-11T01:09:05.671Z,99.99
2018-06-11T01:10:58.480Z,99.99
2018-06-11T01:11:58.402Z,99.99
2018-06-11T01:13:51.174Z,99.99
2018-06-11T01:14:51.117Z,99.99
2018-06-11T01:16:43.937Z,99.99
2018-06-11T01:17:43.845Z,99.99
2018-06-11T01:19:36.622Z,99.99
2018-06-11T01:20:36.551Z,99.99
2018-06-11T01:22:29.358Z,99.99
2018-06-11T01:23:29.306Z,99.99
2018-06-11T01:25:22.072Z,99.99
2018-06-11T01:26:21.992Z,99.99
2018-06-11T01:28:14.776Z,99.99
2018-06-11T01:29:14.713Z,99.99
2018-06-11T01:31:07.500Z,99.99
2018-06-11T01:32:07.425Z,99.99
2018-06-11T01:34:00.207Z,99.99
2018-06-11T01:35:00.149Z,99.99
2018-06-11T01:36:52.939Z,99.99
2018-06-11T01:37:52.878Z,99.99
2018-06-11T01:39:45.666Z,99.99
2018-06-11T01:40:45.593Z,99.99
2018-06-11T01:42:38.374Z,99.99
2018-06-11T01:43:38.303Z,99.99
2018-06-11T01:45:31.095Z,99.99
2018-06-11T01:46:31.024Z,99.99
2018-06-11T01:48:23.811Z,99.99
2018-06-11T01:49:23.764Z,99.99
2018-06-11T01:51:16.534Z,99.99
2018-06-11T01:52:16.454Z,99.99
2018-06-11T01:54:09.249Z,99.99
2018-06-11T01:55:09.186Z,99.99
2018-06-11T01:57:02.021Z,99.99
2018-06-11T01:58:01.950Z,99.99
2018-06-11T01:59:54.724Z,99.99
2018-06-11T02:00:54.657Z,99.99
2018-06-11T02:02:47.475Z,99.99
2018-06-11T02:03:47.393Z,99.99
2018-06-11T02:05:40.206Z,99.99
2018-06-11T02:06:40.109Z,99.99
2018-06-11T02:08:32.887Z,99.99
2018-06-11T02:09:32.824Z,99.99
2018-06-11T02:11:25.651Z,99.99
2018-06-11T02:12:25.537Z,99.99
2018-06-11T02:14:18.323Z,99.99
2018-06-11T02:15:18.263Z,99.99
2018-06-11T02:17:11.085Z,99.99
2018-06-11T02:18:10.997Z,99.99
2018-06-11T02:20:03.756Z,99.99
2018-06-11T02:21:03.696Z,99.99
2018-06-11T02:22:56.516Z,99.99
2018-06-11T02:23:56.478Z,99.99
2018-06-11T02:25:49.207Z,99.99
2018-06-11T02:26:49.146Z,99.99
2018-06-11T02:28:41.935Z,99.99
2018-06-11T02:29:41.861Z,99.99
2018-06-11T02:31:34.633Z,99.99
2018-06-11T02:32:34.570Z,99.99
2018-06-11T02:34:27.382Z,99.99
2018-06-11T02:35:27.270Z,99.99
2018-06-11T02:37:20.055Z,99.99
2018-06-11T02:38:19.981Z,99.99
2018-06-11T02:40:12.747Z,99.99
2018-06-11T02:41:12.688Z,99.99
2018-06-11T02:43:05.481Z,99.99
2018-06-11T02:44:05.409Z,99.99
2018-06-11T02:45:58.262Z,99.99
2018-06-11T02:46:58.177Z,99.99
2018-06-11T02:48:50.924Z,99.99
2018-06-11T02:49:50.851Z,99.99
2018-06-11T02:51:43.622Z,99.99
2018-06-11T02:52:43.557Z,99.99
2018-06-11T02:54:36.348Z,99.99
2018-06-11T02:55:36.270Z,99.99
2018-06-11T02:57:29.050Z,99.99
2018-06-11T02:58:29.030Z,99.99
2018-06-11T03:00:21.749Z,99.99
2018-06-11T03:01:21.707Z,99.99
2018-06-11T03:03:14.479Z,99.99
2018-06-11T03:04:14.397Z,99.99
2018-06-11T03:06:07.171Z,99.99
2018-06-11T03:07:07.102Z,99.99
2018-06-11T03:08:59.889Z,99.99
2018-06-11T03:09:59.821Z,99.99
2018-06-11T03:11:52.604Z,99.99
2018-06-11T03:12:52.539Z,99.99
2018-06-11T03:14:45.321Z,99.99
2018-06-11T03:15:45.255Z,99.99
2018-06-11T03:17:38.037Z,99.99
2018-06-11T03:18:37.973Z,99.99
2018-06-11T03:20:30.739Z,99.99
2018-06-11T03:21:30.677Z,99.99
2018-06-11T03:23:23.459Z,99.99
2018-06-11T03:24:23.385Z,99.99
2018-06-11T03:26:16.147Z,99.99
2018-06-11T03:27:16.088Z,99.99
2018-06-11T03:29:08.864Z,99.99
2018-06-11T03:30:08.796Z,99.99
2018-06-11T03:32:01.575Z,99.99
2018-06-11T03:33:01.505Z,99.99
2018-06-11T03:34:54.270Z,99.99
2018-06-11T03:35:54.197Z,99.99
2018-06-11T03:37:46.972Z,99.99
2018-06-11T03:38:46.911Z,99.99
2018-06-11T03:40:39.694Z,99.99
2018-06-11T03:41:39.671Z,99.99
2018-06-11T03:43:32.397Z,99.99
2018-06-11T03:44:32.320Z,99.99
2018-06-11T03:46:25.103Z,99.99
2018-06-11T03:47:25.030Z,99.99
2018-06-11T03:49:17.816Z,99.99
2018-06-11T03:50:17.747Z,99.99
2018-06-11T03:52:10.509Z,99.99
2018-06-11T03:53:10.455Z,99.99
2018-06-11T03:55:03.236Z,99.99
2018-06-11T03:56:03.162Z,99.99
2018-06-11T03:57:55.950Z,99.99
2018-06-11T03:58:55.881Z,99.99
2018-06-11T04:00:48.674Z,99.99
2018-06-11T04:01:48.594Z,99.99
2018-06-11T04:03:41.383Z,99.99
2018-06-11T04:04:41.307Z,99.99
2018-06-11T04:06:34.090Z,99.99
2018-06-11T04:07:34.035Z,99.99
2018-06-11T04:09:26.847Z,99.99
2018-06-11T04:10:26.766Z,99.99
2018-06-11T04:12:19.589Z,99.99
2018-06-11T04:13:19.508Z,99.99
2018-06-11T04:15:12.314Z,99.99
2018-06-11T04:16:12.243Z,99.99
2018-06-11T04:18:05.008Z,99.99
2018-06-11T04:19:04.952Z,99.99
2018-06-11T04:20:57.742Z,99.99
2018-06-11T04:21:57.661Z,99.99
2018-06-11T04:23:50.458Z,99.99
2018-06-11T04:24:50.383Z,99.99
2018-06-11T04:26:43.159Z,99.99
2018-06-11T04:27:43.098Z,99.99
2018-06-11T04:29:35.886Z,99.99
2018-06-11T04:30:35.836Z,99.99
2018-06-11T04:32:28.613Z,99.99
2018-06-11T04:33:28.534Z,99.99
2018-06-11T04:35:21.333Z,99.99
2018-06-11T04:36:21.260Z,99.99
2018-06-11T04:38:14.048Z,99.99
2018-06-11T04:39:13.995Z,99.99
2018-06-11T04:41:06.781Z,99.99
2018-06-11T04:42:06.702Z,99.99
2018-06-11T04:43:59.496Z,99.99
2018-06-11T04:44:59.435Z,99.99
2018-06-11T04:46:52.257Z,99.99
2018-06-11T04:47:52.142Z,99.99
2018-06-11T04:49:44.953Z,99.99
2018-06-11T04:50:44.864Z,99.99
2018-06-11T04:52:37.648Z,99.99
2018-06-11T04:53:37.593Z,99.99
2018-06-11T04:55:30.377Z,99.99
2018-06-11T04:56:30.295Z,99.99
2018-06-11T04:58:23.085Z,99.99
2018-06-11T04:59:23.035Z,99.99
2018-06-11T05:01:15.809Z,99.99
2018-06-11T05:02:15.748Z,99.99
2018-06-11T05:04:08.516Z,99.99
2018-06-11T05:05:08.465Z,99.99
2018-06-11T05:07:01.240Z,99.99
2018-06-11T05:08:01.199Z,99.99
2018-06-11T05:09:53.978Z,99.99
2018-06-11T05:10:53.890Z,99.99
2018-06-11T05:12:46.661Z,99.99
2018-06-11T05:13:46.607Z,99.99
2018-06-11T05:15:39.388Z,99.99
2018-06-11T05:16:39.316Z,99.99
2018-06-11T05:18:32.115Z,99.99
2018-06-11T05:19:32.056Z,99.99
2018-06-11T05:21:24.841Z,99.99
2018-06-11T05:22:24.769Z,99.99
2018-06-11T05:24:17.554Z,99.99
2018-06-11T05:25:17.494Z,99.99
2018-06-11T05:27:10.309Z,99.99
2018-06-11T05:28:10.229Z,99.99
2018-06-11T05:30:02.989Z,99.99
2018-06-11T05:31:02.937Z,99.99
2018-06-11T05:32:55.721Z,99.99
2018-06-11T05:33:55.661Z,99.99
2018-06-11T05:35:48.444Z,99.99
2018-06-11T05:36:48.367Z,99.99
2018-06-11T05:38:41.156Z,99.99
2018-06-11T05:39:41.091Z,99.99
2018-06-11T05:41:33.877Z,99.99
2018-06-11T05:42:33.802Z,99.99
2018-06-11T05:44:26.602Z,99.99
2018-06-11T05:45:26.541Z,99.99
2018-06-11T05:47:19.336Z,99.99
2018-06-11T05:48:19.272Z,99.99
2018-06-11T05:50:12.054Z,99.99
2018-06-11T05:51:11.985Z,99.99
2018-06-11T05:53:04.798Z,99.99
2018-06-11T05:54:04.697Z,99.99
2018-06-11T05:55:57.524Z,99.99
2018-06-11T05:56:57.455Z,99.99
2018-06-11T05:58:50.218Z,99.99
2018-06-11T05:59:50.160Z,99.99
2018-06-11T06:01:42.958Z,99.99
2018-06-11T06:02:42.871Z,99.99
2018-06-11T06:04:35.706Z,99.99
2018-06-11T06:05:35.589Z,99.99
2018-06-11T06:07:28.381Z,99.99
2018-06-11T06:08:28.313Z,99.99
2018-06-11T06:10:21.106Z,99.99
2018-06-11T06:11:21.047Z,99.99
2018-06-11T06:13:13.834Z,99.99
2018-06-11T06:14:13.775Z,99.99
2018-06-11T06:16:06.534Z,99.99
2018-06-11T06:17:06.478Z,99.99
2018-06-11T06:18:59.286Z,99.99
2018-06-11T06:19:59.191Z,99.99
2018-06-11T06:21:52.006Z,99.99
2018-06-11T06:22:51.940Z,99.99
2018-06-11T06:24:44.731Z,99.99
2018-06-11T06:25:44.666Z,99.99
2018-06-11T06:27:37.448Z,99.99
2018-06-11T06:28:37.381Z,99.99
2018-06-11T06:30:30.172Z,99.99
2018-06-11T06:31:30.088Z,99.99
2018-06-11T06:33:22.870Z,99.99
2018-06-11T06:34:22.855Z,99.99
2018-06-11T06:36:15.593Z,99.99
2018-06-11T06:37:15.537Z,99.99
2018-06-11T06:39:08.334Z,99.99
2018-06-11T06:40:08.260Z,99.99
2018-06-11T06:42:01.091Z,99.99
2018-06-11T06:43:01.058Z,99.99
2018-06-11T06:44:53.795Z,98.30
2018-06-11T06:45:53.736Z,99.46
2018-06-11T06:47:46.584Z,97.67
2018-06-11T06:48:46.464Z,99.26
2018-06-11T06:50:39.230Z,99.99
2018-06-11T06:51:39.180Z,99.99
2018-06-11T06:53:31.969Z,99.99
2018-06-11T06:54:31.889Z,99.99
2018-06-11T06:56:24.672Z,99.99
2018-06-11T06:57:24.623Z,99.99
2018-06-11T06:59:17.399Z,99.99
2018-06-11T07:00:17.326Z,99.99
2018-06-11T07:02:10.104Z,99.99
2018-06-11T07:03:10.048Z,99.99
2018-06-11T07:05:02.827Z,99.99
2018-06-11T07:06:02.757Z,99.99
2018-06-11T07:07:55.571Z,99.99
2018-06-11T07:08:55.476Z,99.99
2018-06-11T07:10:48.253Z,99.99
2018-06-11T07:11:48.196Z,99.99
2018-06-11T07:13:41.012Z,99.99
2018-06-11T07:14:40.933Z,99.99
2018-06-11T07:16:33.719Z,99.99
2018-06-11T07:17:33.652Z,99.99
2018-06-11T07:19:26.439Z,99.99
2018-06-11T07:20:26.376Z,99.99
2018-06-11T07:22:19.150Z,99.99
2018-06-11T07:23:19.094Z,99.99
2018-06-11T07:25:11.903Z,99.99
2018-06-11T07:26:11.809Z,99.99
2018-06-11T07:28:04.588Z,99.99
2018-06-11T07:29:04.528Z,99.99
2018-06-11T07:30:57.316Z,99.99
2018-06-11T07:31:57.251Z,99.99
2018-06-11T07:33:50.103Z,99.99
2018-06-11T07:34:49.972Z,99.99
2018-06-11T07:36:42.767Z,99.99
2018-06-11T07:37:42.712Z,99.99
2018-06-11T07:39:35.504Z,99.99
2018-06-11T07:40:35.429Z,99.99
2018-06-11T07:42:28.239Z,99.99
2018-06-11T07:43:28.175Z,95.92
2018-06-11T07:45:20.987Z,96.65
2018-06-11T07:46:20.928Z,94.37
2018-06-11T07:48:13.706Z,91.22
2018-06-11T07:49:13.656Z,90.34
2018-06-11T07:51:06.443Z,89.66
2018-06-11T07:52:06.367Z,89.95
2018-06-11T07:53:59.149Z,84.97
2018-06-11T07:54:59.086Z,82.49
2018-06-11T07:56:51.886Z,81.26
2018-06-11T07:57:51.812Z,82.11
2018-06-11T07:59:44.636Z,84.24
2018-06-11T08:00:44.575Z,88.89
2018-06-11T08:02:37.330Z,90.06
2018-06-11T08:03:37.278Z,91.22
2018-06-11T08:05:30.093Z,84.75
2018-06-11T08:06:30.028Z,83.97
2018-06-11T08:08:22.893Z,82.71
2018-06-11T08:09:22.821Z,83.00
2018-06-11T08:11:15.698Z,81.66
2018-06-11T08:12:15.594Z,85.44
2018-06-11T08:14:08.397Z,84.67
2018-06-11T08:15:08.328Z,84.61
2018-06-11T08:17:01.134Z,84.24
2018-06-11T08:18:01.052Z,85.07
2018-06-11T08:19:53.859Z,84.47
2018-06-11T08:20:53.865Z,85.39
2018-06-11T08:22:46.590Z,83.56
2018-06-11T08:23:46.535Z,84.63
2018-06-11T08:25:39.308Z,82.30
2018-06-11T08:26:39.235Z,83.70
2018-06-11T08:28:32.029Z,82.20
2018-06-11T08:29:31.963Z,83.88
2018-06-11T08:31:24.780Z,79.00
2018-06-11T08:32:24.719Z,79.33
2018-06-11T08:34:17.503Z,76.18
2018-06-11T08:35:17.451Z,76.48
2018-06-11T08:37:10.245Z,75.91
2018-06-11T08:38:10.175Z,73.24
2018-06-11T08:40:02.978Z,75.80
2018-06-11T08:41:02.950Z,74.40
2018-06-11T08:42:55.740Z,79.71
2018-06-11T08:43:55.654Z,80.05
2018-06-11T08:45:48.462Z,82.63
2018-06-11T08:46:48.403Z,82.51
2018-06-11T08:48:41.187Z,84.89
2018-06-11T08:49:41.117Z,84.17
2018-06-11T08:51:33.933Z,87.70
2018-06-11T08:52:33.853Z,87.02
2018-06-11T08:54:26.644Z,85.90
2018-06-11T08:55:26.597Z,83.62
2018-06-11T08:57:19.481Z,83.75
2018-06-11T08:58:19.408Z,83.23
2018-06-11T09:00:12.205Z,83.09
2018-06-11T09:01:12.135Z,82.35
2018-06-11T09:03:05.003Z,82.23
2018-06-11T09:04:04.908Z,77.15
2018-06-11T09:05:57.691Z,75.03
2018-06-11T09:06:57.646Z,73.73
2018-06-11T09:08:50.433Z,74.44
2018-06-11T09:09:50.361Z,74.60
2018-06-11T09:11:43.149Z,78.91
2018-06-11T09:12:43.093Z,82.84
2018-06-11T09:14:35.878Z,83.92
2018-06-11T09:15:35.805Z,83.78
2018-06-11T09:17:28.618Z,87.27
2018-06-11T09:18:28.690Z,88.24
2018-06-11T09:20:21.343Z,88.92
2018-06-11T09:21:21.320Z,88.09
2018-06-11T09:23:14.087Z,87.88
2018-06-11T09:24:14.019Z,81.18
2018-06-11T09:26:06.817Z,78.58
2018-06-11T09:27:06.765Z,77.51
2018-06-11T09:28:59.806Z,77.82
2018-06-11T09:29:59.550Z,78.07
2018-06-11T09:31:52.258Z,81.00
2018-06-11T09:32:52.205Z,80.77
2018-06-11T09:34:45.025Z,83.83
2018-06-11T09:35:44.957Z,83.59
2018-06-11T09:37:37.747Z,81.25
2018-06-11T09:38:37.692Z,82.47
2018-06-11T09:40:30.498Z,80.40
2018-06-11T09:41:30.421Z,76.56
2018-06-11T09:43:23.250Z,75.47
2018-06-11T09:44:23.171Z,74.96
2018-06-11T09:46:15.972Z,72.66
2018-06-11T09:47:15.911Z,70.72
2018-06-11T09:49:08.768Z,70.85
2018-06-11T09:50:08.764Z,66.86
2018-06-11T09:52:01.463Z,69.62
2018-06-11T09:53:01.376Z,69.13
2018-06-11T09:54:54.196Z,69.09
2018-06-11T09:55:54.110Z,71.23
2018-06-11T09:57:46.897Z,69.16
2018-06-11T09:58:46.834Z,71.53
2018-06-11T10:00:39.627Z,69.00
2018-06-11T10:01:39.560Z,66.79
2018-06-11T10:03:32.346Z,62.99
2018-06-11T10:04:32.279Z,62.41
2018-06-11T10:06:25.059Z,62.80
2018-06-11T10:07:24.999Z,61.57
2018-06-11T10:09:17.807Z,66.44
2018-06-11T10:10:17.724Z,70.77
2018-06-11T10:12:10.549Z,70.41
2018-06-11T10:13:10.455Z,70.57
2018-06-11T10:15:03.253Z,72.80
2018-06-11T10:16:03.179Z,73.67
2018-06-11T10:17:55.968Z,72.96
2018-06-11T10:18:55.905Z,75.28
2018-06-11T10:20:48.707Z,73.52
2018-06-11T10:21:48.649Z,70.45
2018-06-11T10:23:41.415Z,69.41
2018-06-11T10:24:41.361Z,66.89
2018-06-11T10:26:34.148Z,66.69
2018-06-11T10:27:34.072Z,69.41
2018-06-11T10:29:26.867Z,69.41
2018-06-11T10:30:26.801Z,66.60
2018-06-11T10:32:45.073Z,67.99
2018-06-11T10:33:45.037Z,66.69
2018-06-11T10:35:37.806Z,67.70
2018-06-11T10:36:37.743Z,67.60
2018-06-11T10:38:30.524Z,69.29
2018-06-11T10:39:30.460Z,67.05
2018-06-11T10:41:23.242Z,62.77
2018-06-11T10:42:23.178Z,64.43
2018-06-11T10:44:15.984Z,64.43
2018-06-11T10:45:15.901Z,64.56
2018-06-11T10:47:08.668Z,62.71
2018-06-11T10:48:08.619Z,60.44
2018-06-11T10:50:01.395Z,62.87
2018-06-11T10:51:01.329Z,63.52
2018-06-11T10:52:54.097Z,61.09
2018-06-11T10:53:54.041Z,64.07
2018-06-11T10:55:46.821Z,64.95
2018-06-11T10:56:46.754Z,65.72
2018-06-11T10:58:39.530Z,66.02
2018-06-11T10:59:39.474Z,66.72
2018-06-11T11:01:32.260Z,64.98
2018-06-11T11:02:32.192Z,62.84
2018-06-11T11:04:24.993Z,64.98
2018-06-11T11:05:24.951Z,65.33
2018-06-11T11:07:17.784Z,64.92
2018-06-11T11:08:17.687Z,65.20
2018-06-11T11:10:10.563Z,65.59
2018-06-11T11:11:10.477Z,67.73
2018-06-11T11:13:03.292Z,62.81
2018-06-11T11:14:03.212Z,66.30
2018-06-11T11:15:56.008Z,63.82
2018-06-11T11:16:55.937Z,64.30
2018-06-11T11:18:48.746Z,63.72
2018-06-11T11:19:48.689Z,63.95
2018-06-11T11:21:41.508Z,62.39
2018-06-11T11:22:41.437Z,61.74
2018-06-11T11:24:34.205Z,62.71
2018-06-11T11:25:34.155Z,64.95
2018-06-11T11:27:26.937Z,64.72
2018-06-11T11:28:26.865Z,60.06
2018-06-11T11:30:19.670Z,62.39
2018-06-11T11:31:19.695Z,62.23
2018-06-11T11:33:12.406Z,62.68
2018-06-11T11:34:12.354Z,63.49
2018-06-11T11:36:05.155Z,64.14
2018-06-11T11:37:05.090Z,63.56
2018-06-11T11:38:57.914Z,62.19
2018-06-11T11:39:57.863Z,62.78
2018-06-11T11:41:50.683Z,62.52
2018-06-11T11:42:50.584Z,64.17
2018-06-11T11:44:43.390Z,62.10
2018-06-11T11:45:43.333Z,63.53
2018-06-11T11:47:36.111Z,61.78
2018-06-11T11:48:36.044Z,63.72
2018-06-11T11:50:28.817Z,63.62
2018-06-11T11:51:28.760Z,61.19
2018-06-11T11:53:21.577Z,60.20
2018-06-11T11:54:21.509Z,64.47
2018-06-11T11:56:14.306Z,63.37
2018-06-11T11:57:14.243Z,65.08
2018-06-11T11:59:07.041Z,65.85
2018-06-11T12:00:06.981Z,64.79
2018-06-11T12:01:59.911Z,64.50
2018-06-11T12:02:59.748Z,62.56
2018-06-11T12:04:52.541Z,63.34
2018-06-11T12:05:52.493Z,64.59
2018-06-11T12:07:45.294Z,65.27
2018-06-11T12:08:45.221Z,64.20
2018-06-11T12:10:38.028Z,64.01
2018-06-11T12:11:37.969Z,67.98
2018-06-11T12:13:30.771Z,65.17
2018-06-11T12:14:30.706Z,66.34
2018-06-11T12:16:23.468Z,65.47
2018-06-11T12:17:23.402Z,65.66
2018-06-11T12:19:16.172Z,66.43
2018-06-11T12:20:16.119Z,66.14
2018-06-11T12:22:08.935Z,64.98
2018-06-11T12:23:08.859Z,64.20
2018-06-11T12:25:01.631Z,63.72
2018-06-11T12:26:01.572Z,63.24
2018-06-11T12:27:54.357Z,63.62
2018-06-11T12:28:54.284Z,66.34
2018-06-11T12:30:47.081Z,64.30
2018-06-11T12:31:47.061Z,64.59
2018-06-11T12:33:39.841Z,60.62
2018-06-11T12:34:39.766Z,62.10
2018-06-11T12:36:32.579Z,60.62
2018-06-11T12:37:32.520Z,63.43
2018-06-11T12:39:25.336Z,61.11
2018-06-11T12:40:25.265Z,63.14
2018-06-11T12:42:18.130Z,63.72
2018-06-11T12:43:18.021Z,62.37
2018-06-11T12:45:10.820Z,63.14
2018-06-11T12:46:10.762Z,60.72
2018-06-11T12:48:03.549Z,61.14
2018-06-11T12:49:03.478Z,62.85
2018-06-11T12:50:56.250Z,61.21
2018-06-11T12:51:56.190Z,62.56
2018-06-11T12:53:48.971Z,60.52
2018-06-11T12:54:48.899Z,60.91
2018-06-11T12:56:41.713Z,61.79
2018-06-11T12:57:41.655Z,58.88
2018-06-11T12:59:34.474Z,61.11
2018-06-11T13:00:34.410Z,60.17
2018-06-11T13:02:27.219Z,60.36
2018-06-11T13:03:27.150Z,58.49
2018-06-11T13:05:19.961Z,60.62
2018-06-11T13:06:19.913Z,60.52
2018-06-11T13:08:12.746Z,60.62
2018-06-11T13:09:12.668Z,59.56
2018-06-11T13:11:05.453Z,61.49
2018-06-11T13:12:05.393Z,59.84
2018-06-11T13:13:58.180Z,59.36
2018-06-11T13:14:58.334Z,60.04
2018-06-11T13:16:50.918Z,59.36
2018-06-11T13:17:50.857Z,59.56
2018-06-11T13:19:43.668Z,58.81
2018-06-11T13:20:43.602Z,59.00
2018-06-11T13:22:36.435Z,57.91
2018-06-11T13:23:36.344Z,59.66
2018-06-11T13:25:29.131Z,59.75
2018-06-11T13:26:29.061Z,57.04
2018-06-11T13:28:21.946Z,60.52
2018-06-11T13:29:21.798Z,59.75
2018-06-11T13:31:14.597Z,58.30
2018-06-11T13:32:14.546Z,59.36
2018-06-11T13:34:07.368Z,59.78
2018-06-11T13:35:07.297Z,60.43
2018-06-11T13:37:00.192Z,60.82
2018-06-11T13:38:00.088Z,59.66
2018-06-11T13:39:52.854Z,58.20
2018-06-11T13:40:52.786Z,60.14
2018-06-11T13:42:45.696Z,60.55
2018-06-11T13:43:45.499Z,59.07
2018-06-11T13:45:38.298Z,58.42
2018-06-11T13:46:38.223Z,60.14
2018-06-11T13:48:31.009Z,59.78
2018-06-11T13:49:30.945Z,59.78
2018-06-11T13:51:23.707Z,60.65
2018-06-11T13:52:23.654Z,59.30
2018-06-11T13:54:16.451Z,58.84
2018-06-11T13:55:16.387Z,59.69
2018-06-11T13:57:09.205Z,58.62
2018-06-11T13:58:09.153Z,59.59
2018-06-11T14:00:01.918Z,61.36
2018-06-11T14:01:01.851Z,59.88
2018-06-11T14:02:54.641Z,58.23
2018-06-11T14:03:54.576Z,58.16
2018-06-11T14:05:47.449Z,60.17
2018-06-11T14:06:47.313Z,59.69
2018-06-11T14:08:40.094Z,59.52
2018-06-11T14:09:40.042Z,57.75
2018-06-11T14:11:32.834Z,59.59
2018-06-11T14:12:32.752Z,58.23
2018-06-11T14:14:25.540Z,59.00
2018-06-11T14:15:25.472Z,59.10
2018-06-11T14:17:18.255Z,58.91
2018-06-11T14:18:18.190Z,58.62
2018-06-11T14:20:10.965Z,58.62
2018-06-11T14:21:10.896Z,56.97
2018-06-11T14:23:03.685Z,56.20
2018-06-11T14:24:03.620Z,56.29
2018-06-11T14:25:56.395Z,58.72
2018-06-11T14:26:56.332Z,59.10
2018-06-11T14:28:49.094Z,60.00
2018-06-11T14:29:49.045Z,58.45
2018-06-11T14:31:41.828Z,60.36
2018-06-11T14:32:41.757Z,61.07
2018-06-11T14:34:34.529Z,60.97
2018-06-11T14:35:34.464Z,60.39
2018-06-11T14:37:27.245Z,58.45
2018-06-11T14:38:27.232Z,59.33
2018-06-11T14:40:19.961Z,61.85
2018-06-11T14:41:19.893Z,61.17
2018-06-11T14:43:12.676Z,60.17
2018-06-11T14:44:12.635Z,60.36
2018-06-11T14:46:05.426Z,60.49
2018-06-11T14:47:05.355Z,59.23
2018-06-11T14:48:58.124Z,60.36
2018-06-11T14:49:58.071Z,60.49
2018-06-11T14:51:50.865Z,59.71
2018-06-11T14:52:50.796Z,59.42
2018-06-11T14:54:43.599Z,59.52
2018-06-11T14:55:43.524Z,59.52
2018-06-11T14:57:36.304Z,60.39
2018-06-11T14:58:36.239Z,61.04
2018-06-11T15:00:29.022Z,59.81
2018-06-11T15:01:28.957Z,60.20
2018-06-11T15:03:21.729Z,58.55
2018-06-11T15:04:21.673Z,58.72
2018-06-11T15:06:14.457Z,60.65
2018-06-11T15:07:14.388Z,60.75
2018-06-11T15:09:07.161Z,60.27
2018-06-11T15:10:07.104Z,60.75
2018-06-11T15:11:59.885Z,61.33
2018-06-11T15:12:59.816Z,60.75
2018-06-11T15:14:52.625Z,60.65
2018-06-11T15:15:52.585Z,60.65
2018-06-11T15:17:45.358Z,61.62
2018-06-11T15:18:45.289Z,61.52
2018-06-11T15:20:38.123Z,59.88
2018-06-11T15:21:38.038Z,60.46
2018-06-11T15:23:30.893Z,62.37
2018-06-11T15:24:30.822Z,60.04
2018-06-11T15:26:23.601Z,60.33
2018-06-11T15:27:23.530Z,61.01
2018-06-11T15:29:16.386Z,59.69
2018-06-11T15:30:16.270Z,59.20
2018-06-11T15:32:09.054Z,60.46
2018-06-11T15:33:08.982Z,58.11
2018-06-11T15:35:01.788Z,59.94
2018-06-11T15:36:01.705Z,58.69
2018-06-11T15:37:54.544Z,60.62
2018-06-11T15:38:54.474Z,60.62
2018-06-11T15:40:47.273Z,59.49
2018-06-11T15:41:47.203Z,60.46
2018-06-11T15:43:40.009Z,59.27
2018-06-11T15:44:39.936Z,58.88
2018-06-11T15:46:32.751Z,59.88
2018-06-11T15:47:32.678Z,60.75
2018-06-11T15:49:25.466Z,58.78
2018-06-11T15:50:25.408Z,60.62
2018-06-11T15:52:18.208Z,60.43
2018-06-11T15:53:18.123Z,58.69
2018-06-11T15:55:10.897Z,58.62
2018-06-11T15:56:10.845Z,59.97
2018-06-11T15:58:03.648Z,58.59
2018-06-11T15:59:03.579Z,56.77
2018-06-11T16:00:56.355Z,56.65
2018-06-11T16:01:56.293Z,58.78
2018-06-11T16:03:49.074Z,58.39
2018-06-11T16:04:49.012Z,59.46
2018-06-11T16:06:41.789Z,58.11
2018-06-11T16:07:41.720Z,58.98
2018-06-11T16:09:34.489Z,58.30
2018-06-11T16:10:34.435Z,58.30
2018-06-11T16:12:27.215Z,57.81
2018-06-11T16:13:27.145Z,59.17
2018-06-11T16:15:19.952Z,58.59
2018-06-11T16:16:19.894Z,60.04
2018-06-11T16:18:12.686Z,58.49
2018-06-11T16:19:12.615Z,59.66
2018-06-11T16:21:05.417Z,57.53
2018-06-11T16:22:05.333Z,58.78
2018-06-11T16:23:58.132Z,60.33
2018-06-11T16:24:58.050Z,61.30
2018-06-11T16:26:50.837Z,59.56
2018-06-11T16:27:50.764Z,59.36
2018-06-11T16:29:43.549Z,60.04
2018-06-11T16:30:43.538Z,58.98
2018-06-11T16:32:36.259Z,58.88
2018-06-11T16:33:36.212Z,58.69
2018-06-11T16:35:29.003Z,60.04
2018-06-11T16:36:28.942Z,59.66
2018-06-11T16:38:21.718Z,58.39
2018-06-11T16:39:21.680Z,58.49
2018-06-11T16:41:14.434Z,61.01
2018-06-11T16:42:14.371Z,59.94
2018-06-11T16:44:07.208Z,60.43
2018-06-11T16:45:07.149Z,60.50
2018-06-11T16:46:59.933Z,60.59
2018-06-11T16:47:59.844Z,58.27
2018-06-11T16:49:52.613Z,59.82
2018-06-11T16:50:52.548Z,57.79
2018-06-11T16:52:45.324Z,58.95
2018-06-11T16:53:45.265Z,58.47
2018-06-11T16:55:38.047Z,59.82
2018-06-11T16:56:37.985Z,60.30
2018-06-11T16:58:30.788Z,59.79
2018-06-11T16:59:30.720Z,58.44
2018-06-11T17:01:23.483Z,60.69
2018-06-11T17:02:23.426Z,58.53
2018-06-11T17:04:16.200Z,59.50
2018-06-11T17:05:16.131Z,59.31
2018-06-11T17:07:08.898Z,60.75
2018-06-11T17:08:08.838Z,58.92
2018-06-11T17:10:01.706Z,58.72
2018-06-11T17:11:01.636Z,59.01
2018-06-11T17:12:54.459Z,59.66
2018-06-11T17:13:54.368Z,59.40
2018-06-11T17:15:47.150Z,59.69
2018-06-11T17:16:47.076Z,59.08
2018-06-11T17:18:39.882Z,59.66
2018-06-11T17:19:39.793Z,60.72
2018-06-11T17:21:32.571Z,61.11
2018-06-11T17:22:32.513Z,58.60
2018-06-11T17:24:25.313Z,60.34
2018-06-11T17:25:25.253Z,60.82
2018-06-11T17:27:18.083Z,59.47
2018-06-11T17:28:17.992Z,59.66
2018-06-11T17:30:10.808Z,60.53
2018-06-11T17:31:10.737Z,60.14
2018-06-11T17:33:03.509Z,61.50
2018-06-11T17:34:03.452Z,59.56
2018-06-11T17:35:56.211Z,62.37
2018-06-11T17:36:56.151Z,61.60
2018-06-11T17:38:48.940Z,60.34
2018-06-11T17:39:48.901Z,61.02
2018-06-11T17:41:41.649Z,61.47
2018-06-11T17:42:41.587Z,62.27
2018-06-11T17:44:34.390Z,61.57
2018-06-11T17:45:34.306Z,61.37
2018-06-11T17:47:27.077Z,60.50
2018-06-11T17:48:27.017Z,60.41
2018-06-11T17:50:19.797Z,61.27
2018-06-11T17:51:19.739Z,60.50
2018-06-11T17:53:12.507Z,61.27
2018-06-11T17:54:12.452Z,60.89
2018-06-11T17:56:05.228Z,60.31
2018-06-11T17:57:05.160Z,60.99
2018-06-11T17:58:57.961Z,59.63
2018-06-11T17:59:57.863Z,59.53
2018-06-11T18:01:50.660Z,64.47
2018-06-11T18:02:50.589Z,62.89
2018-06-11T18:04:43.489Z,63.56
2018-06-11T18:05:43.353Z,63.08
2018-06-11T18:07:36.132Z,62.79
2018-06-11T18:08:36.070Z,63.76
2018-06-11T18:10:28.895Z,65.11
2018-06-11T18:11:28.808Z,65.01
2018-06-11T18:13:21.577Z,63.47
2018-06-11T18:14:21.514Z,63.43
2018-06-11T18:16:14.333Z,64.34
2018-06-11T18:17:14.259Z,62.95
2018-06-11T18:19:07.038Z,65.27
2018-06-11T18:20:06.966Z,65.08
2018-06-11T18:21:59.749Z,63.73
2018-06-11T18:22:59.685Z,64.31
2018-06-11T18:24:52.469Z,64.11
2018-06-11T18:25:52.397Z,64.01
2018-06-11T18:27:45.168Z,64.11
2018-06-11T18:28:45.109Z,64.79
2018-06-11T18:30:37.885Z,64.01
2018-06-11T18:31:37.825Z,64.50